Logo AVAMET
Benvolgut visitant, si us plau, ingressa Recuperar contrasenya
AVAMET paisatges

Bolulla

Dades diàries. Acumulats / Últims 30 dies disponibles

Data Temperatura (°C) Humitat rel. (%) Pressió rel. (hPa) Vent (km/h) Precipitació
Mínima Mitjana Màxima Amplitud
tèrmica
Mínima Mitjana Màxima Mínima Mitjana Màxima Predom. Mitjana Ràfega
màxima
Total
(mm)
Índex-n
Mínima Mitjana Màxima Mínima Mitjana Màxima n
0 a 1
P0 max
mm 5'
Dades mensuals acumulades fins l'últim dia disponible
01/2021 2,8 5,0 8,8 7,9 7,7 11,5 17,5 14,7 28 67 95 1.001 1.015 1.027   8,9 77,7 82,3
Dades anuals acumulades fins l'últim dia disponible
2021 2,8 5,0 8,8 7,9 7,7 11,5 17,5 14,7 28 67 95 1.001 1.015 1.027   8,9 77,7 82,3
Últims 30 dies disponibles
19-01-2021 6,3     9,2     14,1 7,8 69 83 95 1.019 1.023 1.026 O 7,7 20,4 0,0
18-01-2021 8,8     12,7     15,4 6,6 41 68 93 1.023 1.025 1.026 SO 7,0 29,6 0,0
17-01-2021 4,6     11,4     17,5 12,9 28 47 81 1.022 1.024 1.026 O 7,4 25,9 0,0
16-01-2021 5,1     9,0     13,3 8,2 45 60 84 1.020 1.023 1.026 OSO 7,5 26,3 0,0
15-01-2021 5,3     10,1     15,1 9,8 34 57 75 1.020 1.021 1.023 O 7,3 37,0 0,0
14-01-2021 4,5     7,6     13,0 8,5 40 74 91 1.020 1.022 1.025 O 7,3 24,1 0,0
13-01-2021 3,1     5,6     11,7 8,6 58 75 89 1.024 1.025 1.027 NO 7,8 17,2 0,0
12-01-2021 2,8     5,9     10,7 7,9 58 78 87 1.022 1.024 1.025 ONO 7,9 19,1 0,0
11-01-2021 4,6     7,2     9,6 5,0 68 77 84 1.014 1.017 1.022 SSE 7,7 34,2 0,0
10-01-2021 6,2     7,3     8,7 2,5 58 78 94 1.005 1.009 1.014 SE 6,9 5,7 0,26 0,30
09-01-2021 6,4     7,5     8,6 2,2 76 85 91 1.001 1.003 1.005 SSE 10,6 51,8 19,2 0,35 0,90
08-01-2021 6,4     7,0     7,7 1,3 84 87 90 1.004 1.008 1.010 ESE 11,4 46,3 40,4 0,59 0,70
07-01-2021 5,2     6,4     8,3 3,1 61 84 88 1.008 1.009 1.011 ESE 8,0 38,9 16,2
06-01-2021 2,8     6,5     11,2 8,4 44 63 76 1.010 1.011 1.013 OSO 7,5 24,1 0,0
05-01-2021 3,3     6,7     11,1 7,8 32 56 73 1.008 1.009 1.010 OSO 8,4 33,3 0,0
04-01-2021 3,6     7,7     10,6 7,0 40 52 63 1.008 1.009 1.012 O 9,4 46,3 0,0
03-01-2021 3,2     6,9     10,7 7,5 36 46 58 1.009 1.010 1.012 OSO 9,7 48,5 0,0
02-01-2021 5,7     6,8     8,8 3,1 43 49 56 1.005 1.007 1.009 ONO 17,1 77,7 0,0
01-01-2021 6,4     9,2     11,9 5,5 42 59 84 1.003 1.005 1.008 NO 11,7 53,8 0,8
31-12-2020 4,8     9,8     13,9 9,1 38 50 61 1.009 1.012 1.015 NNO 7,8 42,5 0,0
30-12-2020 6,5     9,2     12,9 6,4 34 49 64 1.007 1.012 1.015 NNO 12,3 59,2 0,0
29-12-2020 8,7     10,9     12,8 4,1 40 48 56 1.001 1.003 1.007 NO 21,4 83,3 0,0
28-12-2020 7,1     11,4     14,6 7,5 32 52 72 997 1.000 1.003 NO 16,7 111,0 0,5
27-12-2020 3,2     7,9     13,3 10,1 35 47 58 1.002 1.012 1.021 NO 6,9 20,4 0,0
26-12-2020 3,6     7,3     12,2 8,6 23 38 53 1.021 1.022 1.024 N 8,4 31,4 0,0
25-12-2020 6,7     10,3     12,6 5,9 30 60 89 1.018 1.020 1.024 NNO 9,3 75,8 0,0
24-12-2020 8,7     12,2     16,6 7,9 58 73 87 1.018 1.020 1.021 NNO 5,2 18,5 0,0
23-12-2020 8,4     11,8     18,1 9,7 60 76 92 1.020 1.022 1.024 NO 5,8 14,8 0,0
22-12-2020 9,0     11,9     16,8 7,8 64 78 92 1.024 1.025 1.027 NO 6,2 20,4 0,0
21-12-2020 8,0     11,0     15,3 7,3 69 79 89 1.025 1.026 1.027 NO 6,7 20,4 0,0
Últims 13 mesos disponibles
12/2020 3,2 8,5 13,4 11,8 10,6 15,5 21,9 18,7 38 62 80 997 1.013 1.026 NNO 10,1 131,3 8,5
11/2020 7,8 11,8 16,3 15,1 14,4 19,2 23,7 15,9 68 77 87 1.004 1.020 1.027 NNO 7,2 44,4 24,9
10/2020 10,9 12,7 15,1 17,9 19,6 23,2 28,2 17,3 43 59 74 997 1.013 1.024 OSO 8,6 77,7 6,5
09/2020 14,2 18,1 20,4 22,0 22,7 26,7 30,5 16,3 41 66 79 1.009 1.015 1.022 OSO 8,0 55,5 5,3
08/2020 15,9 21,2 24,2 25,5 24,3 30,4 34,4 18,5 50 67 84 1.003 1.012 1.017 OSO 7,5 41,3 38,1
07/2020 18,0 21,0 25,0 25,5 25,8 30,3 35,9 17,9 44 64 85 1.010 1.014 1.019 OSO 7,9 42,6 10,0
06/2020 13,5 17,0 20,1 21,7 19,5 26,5 32,1 18,6 48 70 87 1.003 1.013 1.019 OSO 7,9 59,2 93,1
05/2020 12,3 15,4 18,9 20,2 19,0 24,9 29,7 17,4 49 63 84 1.004 1.015 1.024 OSO 8,1 51,8 44,9
04/2020 7,8 11,5 15,7 14,8 14,4 18,8 25,6 17,8 49 74 90 1.004 1.014 1.024 O 7,4 66,6 45,6
03/2020 6,3 10,4 14,6 13,7 9,7 17,3 24,1 17,8 47 70 91 1.004 1.015 1.023 O 8,6 74,7 86,7
02/2020 5,9 9,7 15,9 13,8 13,8 18,7 26,3 20,4 38 70 95 1.013 1.023 1.031 O 7,2 50,3 2,3
01/2020 3,8 7,4 14,5 10,7 13,0 15,1 21,2 17,4 59 77 88 0 500 1.027 O 7,3 78,1 439,5
12/2019 5,8 10,1 15,6 13,2 12,2 17,1 22,7 16,9 48 73 89 0 0 O 8,0 76,6 171,6
Tots els anys disponibles
2020 3,2 13,9 25,0 17,8 9,7 22,2 35,9 32,7 38 69 95 0 968 1.031 OSO 8,0 131,3 805,4
2018 2,8 13,6 27,2 17,3 7,4 21,5 35,3 32,5 41 69 90 984 1.013 1.032 OSO 8,0 85,1 705,8
2017 3,8 14,1 26,7 18,4 8,4 22,9 34,6 30,8 41 68 89 998 1.017 1.033 OSO 2,6 96,0 223,0
2016
Temperatura (°C)
Humitat relativa (%)
Velocitat del vent i ràfega màxima (km/h)
Direcció del vent (°)
Pressió (hPa)
Precipitació (mm)
Nota sobre les dades: s'avisa a l'usuari de la provisionalitat i no oficialitat d'aquestes dades
Logo AVAMET blanc
Web allotjada a Sollutia
Llicència de Creative CommonsLa web d'AVAMET i els seus continguts estan subjectes a una llicència de
Reconeixement - No Comercial - Compartir igual
Avís legal - Política de privacitat - Política de cookies
NOVES ESTACIONS: Rossell - la Vila (Soci), Onda - CR Cota 220 (Soci), Artana (Ajuntament/Soci), Sax (Soci), Benicarló - Sant Gregori (Soci), Riba-roja de Túria - la Reva (Soci), Castielfabib - Arroyo Cerezo (Pròpia d'AVAMET), Tavernes de la Valldigna - Ull del Bou/Cambro (Soci), Chella - Casa Conde (Soci), El Genovés (Inforatge) - - -